createdAt,value
2023-03-13T00:00:58.532Z,69.10
2023-03-13T00:03:47.348Z,69.10
2023-03-13T00:06:37.972Z,67.40
2023-03-13T00:09:27.311Z,67.60
2023-03-13T00:12:15.974Z,67.50
2023-03-13T00:15:06.541Z,68.70
2023-03-13T00:17:55.287Z,69.00
2023-03-13T00:20:43.960Z,68.80
2023-03-13T00:23:33.922Z,70.20
2023-03-13T00:26:24.317Z,69.50
2023-03-13T00:29:13.480Z,68.90
2023-03-13T00:32:03.889Z,69.10
2023-03-13T00:34:52.725Z,69.40
2023-03-13T00:37:41.508Z,70.00
2023-03-13T00:40:30.232Z,71.30
2023-03-13T00:43:18.913Z,71.70
2023-03-13T00:46:08.101Z,71.70
2023-03-13T00:48:58.905Z,71.80
2023-03-13T00:51:47.557Z,72.60
2023-03-13T00:54:36.308Z,72.80
2023-03-13T00:57:25.007Z,72.90
2023-03-13T01:00:16.311Z,72.50
2023-03-13T01:03:05.193Z,73.90
2023-03-13T01:05:59.795Z,74.60
2023-03-13T01:08:49.148Z,74.40
2023-03-13T01:11:39.581Z,74.60
2023-03-13T01:14:28.298Z,75.40
2023-03-13T01:17:16.960Z,76.40
2023-03-13T01:20:08.070Z,75.90
2023-03-13T01:22:58.170Z,75.70
2023-03-13T01:25:46.867Z,75.50
2023-03-13T01:28:36.414Z,76.10
2023-03-13T01:31:27.268Z,75.70
2023-03-13T01:34:16.027Z,76.10
2023-03-13T01:37:04.692Z,76.80
2023-03-13T01:39:54.821Z,77.10
2023-03-13T01:42:54.318Z,76.30
2023-03-13T01:46:01.264Z,77.10
2023-03-13T01:48:54.318Z,77.60
2023-03-13T01:51:46.993Z,78.20
2023-03-13T01:54:41.370Z,79.30
2023-03-13T01:57:35.365Z,80.30
2023-03-13T02:00:26.385Z,81.20
2023-03-13T02:03:20.289Z,81.70
2023-03-13T02:06:10.580Z,82.30
2023-03-13T02:09:05.157Z,83.10
2023-03-13T02:11:58.509Z,82.20
2023-03-13T02:14:51.283Z,83.80
2023-03-13T02:17:42.510Z,82.70
2023-03-13T02:20:31.216Z,83.30
2023-03-13T02:23:26.056Z,84.80
2023-03-13T02:26:16.929Z,86.20
2023-03-13T02:29:05.951Z,86.50
2023-03-13T02:31:55.123Z,87.30
2023-03-13T02:34:44.789Z,88.40
2023-03-13T02:37:34.943Z,88.90
2023-03-13T02:40:29.398Z,90.00
2023-03-13T02:43:24.590Z,91.10
2023-03-13T02:46:14.775Z,90.60
2023-03-13T02:49:21.298Z,91.80
2023-03-13T02:52:15.331Z,92.80
2023-03-13T02:55:10.790Z,93.00
2023-03-13T02:57:59.487Z,93.70
2023-03-13T03:00:49.613Z,93.90
2023-03-13T03:03:38.415Z,93.60
2023-03-13T03:06:27.508Z,94.90
2023-03-13T03:09:16.940Z,93.80
2023-03-13T03:12:06.136Z,93.50
2023-03-13T03:14:54.989Z,96.30
2023-03-13T03:17:45.085Z,96.70
2023-03-13T03:20:33.775Z,96.20
2023-03-13T03:23:22.431Z,96.90
2023-03-13T03:26:11.367Z,96.10
2023-03-13T03:29:00.045Z,96.70
2023-03-13T03:31:48.782Z,96.60
2023-03-13T03:34:38.958Z,96.50
2023-03-13T03:37:27.678Z,97.30
2023-03-13T03:40:16.576Z,97.90
2023-03-13T03:43:05.281Z,98.60
2023-03-13T03:45:54.013Z,98.30
2023-03-13T03:48:42.716Z,99.20
2023-03-13T03:51:32.900Z,98.70
2023-03-13T03:54:21.620Z,99.40
2023-03-13T03:57:10.314Z,99.60
2023-03-13T03:59:58.994Z,98.80
2023-03-13T04:02:47.745Z,98.80
2023-03-13T04:05:36.411Z,99.20
2023-03-13T04:08:26.900Z,99.90
2023-03-13T04:11:15.643Z,99.90
2023-03-13T04:14:04.302Z,99.90
2023-03-13T04:16:53.031Z,99.90
2023-03-13T04:19:41.749Z,99.90
2023-03-13T04:22:30.428Z,99.90
2023-03-13T04:25:20.699Z,99.90
2023-03-13T04:28:09.856Z,99.90
2023-03-13T04:30:58.590Z,99.90
2023-03-13T04:33:47.296Z,99.90
2023-03-13T04:36:36.015Z,99.90
2023-03-13T04:39:25.827Z,99.90
2023-03-13T04:42:16.024Z,99.90
2023-03-13T04:45:04.837Z,99.90
2023-03-13T04:47:53.525Z,99.90
2023-03-13T04:50:42.195Z,99.90
2023-03-13T04:53:30.885Z,99.90
2023-03-13T04:56:41.184Z,99.90
2023-03-13T04:59:33.309Z,99.90
2023-03-13T05:02:22.093Z,99.90
2023-03-13T05:05:11.002Z,99.90
2023-03-13T05:07:59.770Z,99.90
2023-03-13T05:10:48.988Z,99.90
2023-03-13T05:13:37.969Z,99.90
2023-03-13T05:16:28.098Z,99.90
2023-03-13T05:19:16.825Z,99.90
2023-03-13T05:22:05.848Z,99.90
2023-03-13T05:24:54.488Z,99.90
2023-03-13T05:27:43.235Z,99.90
2023-03-13T05:30:31.942Z,99.90
2023-03-13T05:33:22.133Z,99.90
2023-03-13T05:36:11.155Z,99.90
2023-03-13T05:38:59.936Z,99.90
2023-03-13T05:41:48.631Z,99.90
2023-03-13T05:44:37.409Z,99.90
2023-03-13T05:47:26.106Z,99.90
2023-03-13T05:50:16.291Z,99.90
2023-03-13T05:53:04.998Z,99.90
2023-03-13T05:55:53.712Z,99.90
2023-03-13T05:58:42.452Z,99.90
2023-03-13T06:01:31.143Z,99.90
2023-03-13T06:04:19.929Z,99.90
2023-03-13T06:07:10.160Z,99.90
2023-03-13T06:09:58.823Z,99.90
2023-03-13T06:12:54.034Z,99.90
2023-03-13T06:15:42.689Z,99.90
2023-03-13T06:18:31.421Z,99.90
2023-03-13T06:21:20.148Z,99.90
2023-03-13T06:24:10.355Z,99.90
2023-03-13T06:26:59.003Z,99.90
2023-03-13T06:29:47.770Z,99.90
2023-03-13T06:32:36.694Z,99.90
2023-03-13T06:35:25.461Z,99.90
2023-03-13T06:38:14.231Z,99.90
2023-03-13T06:41:15.311Z,99.90
2023-03-13T06:44:04.080Z,99.90
2023-03-13T06:46:58.652Z,99.90
2023-03-13T06:49:47.794Z,99.90
2023-03-13T06:52:44.160Z,99.90
2023-03-13T06:55:34.832Z,99.90
2023-03-13T06:58:53.184Z,99.90
2023-03-13T07:01:51.122Z,99.90
2023-03-13T07:04:40.258Z,99.90
2023-03-13T07:07:35.607Z,99.90
2023-03-13T07:10:28.771Z,99.90
2023-03-13T07:13:22.517Z,99.90
2023-03-13T07:16:14.713Z,99.90
2023-03-13T07:26:28.229Z,99.80
2023-03-13T07:29:24.374Z,99.90
2023-03-13T07:32:23.451Z,99.90
2023-03-13T07:35:29.735Z,99.90
2023-03-13T07:38:37.250Z,99.90
2023-03-13T07:41:41.103Z,99.90
2023-03-13T07:44:38.693Z,99.90
2023-03-13T07:47:33.239Z,99.90
2023-03-13T07:50:23.235Z,99.90
2023-03-13T07:56:29.302Z,99.60
2023-03-13T08:07:04.102Z,98.10
2023-03-13T08:13:03.662Z,99.90
2023-03-13T08:22:43.433Z,99.90
2023-03-13T08:25:32.443Z,99.90
2023-03-13T08:28:34.264Z,99.90
2023-03-13T08:31:36.441Z,99.90
2023-03-13T08:34:27.534Z,99.90
2023-03-13T08:37:17.815Z,99.90
2023-03-13T08:40:18.222Z,99.90
2023-03-13T08:43:07.773Z,99.90
2023-03-13T08:46:13.164Z,99.90
2023-03-13T08:49:14.726Z,98.60
2023-03-13T09:09:45.968Z,88.80
2023-03-13T09:16:52.119Z,86.30
2023-03-13T09:28:42.864Z,74.00
2023-03-13T09:31:56.528Z,75.30
2023-03-13T09:45:10.438Z,87.00
2023-03-13T09:48:38.006Z,90.40
2023-03-13T09:51:39.325Z,93.90
2023-03-13T10:11:16.977Z,99.90
2023-03-13T10:18:01.829Z,99.90
2023-03-13T10:20:52.265Z,99.90
2023-03-13T10:23:45.805Z,99.90
2023-03-13T10:26:38.184Z,99.90
2023-03-13T10:29:29.240Z,99.90
2023-03-13T10:33:05.490Z,99.90
2023-03-13T10:36:49.203Z,99.90
2023-03-13T10:39:57.119Z,99.90
2023-03-13T10:50:19.776Z,99.90
2023-03-13T10:53:56.028Z,99.90
2023-03-13T11:12:23.310Z,99.90
2023-03-13T11:16:11.025Z,99.90
2023-03-13T11:19:49.310Z,99.90
2023-03-13T11:31:16.902Z,99.90
2023-03-13T11:34:13.337Z,99.90
2023-03-13T11:47:02.494Z,99.90
2023-03-13T11:50:21.856Z,99.90
2023-03-13T11:54:24.315Z,99.90
2023-03-13T11:57:22.352Z,99.90
2023-03-13T12:01:08.846Z,99.90
2023-03-13T12:04:05.288Z,99.90
2023-03-13T12:14:14.329Z,99.90
2023-03-13T12:17:09.994Z,99.90
2023-03-13T12:20:20.825Z,99.90
2023-03-13T12:30:32.987Z,99.90
2023-03-13T12:40:28.498Z,99.90
2023-03-13T12:43:26.391Z,99.90
2023-03-13T12:46:32.331Z,99.90
2023-03-13T12:49:57.489Z,99.90
2023-03-13T12:53:19.103Z,99.90
2023-03-13T12:56:49.286Z,99.90
2023-03-13T12:59:49.502Z,99.90
2023-03-13T13:15:05.276Z,99.90
2023-03-13T13:25:56.345Z,99.90
2023-03-13T13:29:26.955Z,99.90
2023-03-13T13:32:17.387Z,99.90
2023-03-13T13:40:22.033Z,97.90
2023-03-13T13:43:56.054Z,94.90
2023-03-13T13:47:23.381Z,95.70
2023-03-13T13:50:21.963Z,90.20
2023-03-13T13:53:43.653Z,91.30
2023-03-13T13:56:59.713Z,93.90
2023-03-13T14:00:25.044Z,93.20
2023-03-13T14:29:10.294Z,99.90
2023-03-13T14:32:09.988Z,99.90
2023-03-13T14:35:43.294Z,99.90
2023-03-13T14:39:03.720Z,99.90
2023-03-13T14:42:14.254Z,98.50
2023-03-13T14:45:27.176Z,96.50
2023-03-13T14:48:33.207Z,90.30
2023-03-13T14:52:13.936Z,91.90
2023-03-13T14:55:05.227Z,89.40
2023-03-13T14:58:02.941Z,85.70
2023-03-13T15:01:36.067Z,86.30
2023-03-13T15:05:26.456Z,91.30
2023-03-13T15:08:32.728Z,91.50
2023-03-13T15:15:10.052Z,95.50
2023-03-13T15:18:02.363Z,97.20
2023-03-13T15:21:43.317Z,99.50
2023-03-13T15:24:40.356Z,99.90
2023-03-13T15:27:42.265Z,99.90
2023-03-13T15:31:07.674Z,99.90
2023-03-13T15:34:08.079Z,99.90
2023-03-13T15:37:32.390Z,99.90
2023-03-13T15:40:25.653Z,99.90
2023-03-13T15:43:17.387Z,99.90
2023-03-13T15:46:26.256Z,91.40
2023-03-13T15:49:24.953Z,88.80
2023-03-13T15:52:19.166Z,80.70
2023-03-13T15:55:10.383Z,77.80
2023-03-13T15:57:59.148Z,78.90
2023-03-13T16:00:54.112Z,77.40
2023-03-13T16:04:09.884Z,71.60
2023-03-13T16:11:17.604Z,67.10
2023-03-13T16:14:06.277Z,66.90
2023-03-13T16:16:54.964Z,67.50
2023-03-13T16:19:43.764Z,64.70
2023-03-13T16:22:33.858Z,62.90
2023-03-13T16:25:23.351Z,64.20
2023-03-13T16:28:13.482Z,61.30
2023-03-13T16:31:02.148Z,59.10
2023-03-13T16:33:53.941Z,63.50
2023-03-13T16:36:42.714Z,60.50
2023-03-13T16:39:32.835Z,63.50
2023-03-13T16:42:21.488Z,63.80
2023-03-13T16:45:11.331Z,65.10
2023-03-13T16:48:00.008Z,66.30
2023-03-13T16:50:48.651Z,65.80
2023-03-13T16:53:37.301Z,66.40
2023-03-13T16:56:30.449Z,66.50
2023-03-13T16:59:19.958Z,68.20
2023-03-13T17:02:15.742Z,64.00
2023-03-13T17:05:05.007Z,66.60
2023-03-13T17:07:54.379Z,65.70
2023-03-13T17:10:43.039Z,67.60
2023-03-13T17:13:33.102Z,69.00
2023-03-13T17:16:26.553Z,68.50
2023-03-13T17:19:17.044Z,70.60
2023-03-13T17:22:05.783Z,69.80
2023-03-13T17:24:54.473Z,72.00
2023-03-13T17:27:44.125Z,70.00
2023-03-13T17:30:43.505Z,70.40
2023-03-13T17:33:32.184Z,70.60
2023-03-13T17:36:23.029Z,69.20
2023-03-13T17:39:15.081Z,63.80
2023-03-13T17:42:05.603Z,64.80
2023-03-13T17:44:54.377Z,65.60
2023-03-13T17:47:44.500Z,65.10
2023-03-13T17:50:33.276Z,63.50
2023-03-13T17:53:21.980Z,64.70
2023-03-13T17:56:19.357Z,64.60
2023-03-13T17:59:14.801Z,64.70
2023-03-13T18:02:03.493Z,66.90
2023-03-13T18:04:54.636Z,64.50
2023-03-13T18:07:45.885Z,64.50
2023-03-13T18:10:34.659Z,66.10
2023-03-13T18:13:23.360Z,67.30
2023-03-13T18:16:24.243Z,67.60
2023-03-13T18:19:16.811Z,66.50
2023-03-13T18:22:13.950Z,65.10
2023-03-13T18:25:02.741Z,63.90
2023-03-13T18:27:51.418Z,58.60
2023-03-13T18:30:40.280Z,56.80
2023-03-13T18:33:29.006Z,59.70
2023-03-13T18:36:19.605Z,65.30
2023-03-13T18:39:14.178Z,70.70
2023-03-13T18:42:03.037Z,72.30
2023-03-13T18:44:51.836Z,62.60
2023-03-13T18:47:40.592Z,55.30
2023-03-13T18:50:31.721Z,60.80
2023-03-13T18:53:20.436Z,57.40
2023-03-13T18:56:18.886Z,54.80
2023-03-13T18:59:12.614Z,55.10
2023-03-13T19:02:01.338Z,52.90
2023-03-13T19:04:50.068Z,52.70
2023-03-13T19:07:38.796Z,51.00
2023-03-13T19:10:29.553Z,51.20
2023-03-13T19:13:19.627Z,48.20
2023-03-13T19:16:17.451Z,41.40
2023-03-13T19:19:11.745Z,34.40
2023-03-13T19:22:01.086Z,36.80
2023-03-13T19:24:49.792Z,33.50
2023-03-13T19:27:39.678Z,32.00
2023-03-13T19:30:29.943Z,32.30
2023-03-13T19:33:18.598Z,31.70
2023-03-13T19:36:12.451Z,34.50
2023-03-13T19:39:01.128Z,36.10
2023-03-13T19:41:49.796Z,36.60
2023-03-13T19:44:40.417Z,38.00
2023-03-13T19:47:30.496Z,41.00
2023-03-13T19:50:22.025Z,40.90
2023-03-13T19:53:10.726Z,42.70
2023-03-13T19:55:59.426Z,42.30
2023-03-13T19:58:49.333Z,44.30
2023-03-13T20:01:38.117Z,44.60
2023-03-13T20:08:35.962Z,46.70
2023-03-13T20:11:25.528Z,44.20
2023-03-13T20:14:14.549Z,44.40
2023-03-13T20:17:03.849Z,45.70
2023-03-13T20:19:52.546Z,45.60
2023-03-13T20:22:41.210Z,45.30
2023-03-13T20:25:31.320Z,44.80
2023-03-13T20:28:20.011Z,47.40
2023-03-13T20:31:09.472Z,48.70
2023-03-13T20:33:59.095Z,51.60
2023-03-13T20:36:47.796Z,51.70
2023-03-13T20:39:36.569Z,52.50
2023-03-13T20:42:26.604Z,51.30
2023-03-13T20:45:15.374Z,54.30
2023-03-13T20:48:04.066Z,52.70
2023-03-13T20:50:53.873Z,54.20
2023-03-13T20:53:43.809Z,52.80
2023-03-13T20:56:32.525Z,54.70
2023-03-13T20:59:22.617Z,54.30
2023-03-13T21:02:11.358Z,53.90
2023-03-13T21:05:00.344Z,55.20
2023-03-13T21:07:49.119Z,55.40
2023-03-13T21:10:38.031Z,55.70
2023-03-13T21:13:26.755Z,56.40
2023-03-13T21:16:18.654Z,57.60
2023-03-13T21:19:07.641Z,58.70
2023-03-13T21:21:56.312Z,60.60
2023-03-13T21:24:45.047Z,62.40
2023-03-13T21:27:34.921Z,64.50
2023-03-13T21:30:24.458Z,66.20
2023-03-13T21:33:14.544Z,67.30
2023-03-13T21:36:03.364Z,68.80
2023-03-13T21:38:53.818Z,70.30
2023-03-13T21:41:43.987Z,72.00
2023-03-13T21:44:32.671Z,73.30
2023-03-13T21:47:24.535Z,72.60
2023-03-13T21:50:14.988Z,72.50
2023-03-13T21:53:04.152Z,71.50
2023-03-13T21:55:53.231Z,72.00
2023-03-13T21:58:44.670Z,72.20
2023-03-13T22:01:33.409Z,72.20
2023-03-13T22:04:22.066Z,73.00
2023-03-13T22:07:12.335Z,72.90
2023-03-13T22:10:01.104Z,71.70
2023-03-13T22:12:49.788Z,73.30
2023-03-13T22:15:38.534Z,76.80
2023-03-13T22:18:27.255Z,80.10
2023-03-13T22:21:17.617Z,83.30
2023-03-13T22:24:10.163Z,86.00
2023-03-13T22:26:59.290Z,88.30
2023-03-13T22:29:48.905Z,89.80
2023-03-13T22:32:37.783Z,91.40
2023-03-13T22:35:26.559Z,91.60
2023-03-13T22:38:15.301Z,91.10
2023-03-13T22:41:07.073Z,90.10
2023-03-13T22:43:55.741Z,88.60
2023-03-13T22:46:44.598Z,87.50
2023-03-13T22:49:33.253Z,85.10
2023-03-13T22:52:23.441Z,85.00
2023-03-13T22:55:12.162Z,84.80
2023-03-13T22:58:02.360Z,84.70
2023-03-13T23:00:51.116Z,83.10
2023-03-13T23:03:39.837Z,82.70
2023-03-13T23:06:28.531Z,81.60
2023-03-13T23:09:17.227Z,80.50
2023-03-13T23:12:06.818Z,79.20
2023-03-13T23:14:59.607Z,80.20
2023-03-13T23:17:48.331Z,81.60
2023-03-13T23:20:38.286Z,82.30
2023-03-13T23:23:27.039Z,79.90
2023-03-13T23:26:17.264Z,81.20
2023-03-13T23:29:06.489Z,81.60
2023-03-13T23:31:56.586Z,81.00
2023-03-13T23:34:45.270Z,79.90
2023-03-13T23:37:34.444Z,80.70
2023-03-13T23:40:24.284Z,81.40
2023-03-13T23:43:13.066Z,82.00
2023-03-13T23:46:02.318Z,82.70
2023-03-13T23:48:55.139Z,82.50
2023-03-13T23:51:44.050Z,83.00
2023-03-13T23:54:33.045Z,82.00
2023-03-13T23:57:21.803Z,80.90
